Time;durP1;ratioP1;P1;durP2;ratioP2;P2;SDS_P1;SDS_P2;PMS_P1;PMS_P2;Temp;Humidity;BMP_temperature;BMP_pressure;BME280_temperature;BME280_humidity;BME280_pressure;Samples;Min_cycle;Max_cycle;Signal;HPM_P1;HPM_P2
2021/08/20 00:00:51;;;;;;;;;4.50;4.00;;;;;18.08;59.99;100838.78;5098565;27;45267;-69
2021/08/20 00:03:17;;;;;;;;;2.50;2.25;;;;;18.08;59.75;100833.44;5098321;27;45176;-71
2021/08/20 00:05:42;;;;;;;;;4.00;4.00;;;;;18.08;60.12;100839.63;5079116;27;47745;-70
2021/08/20 00:08:08;;;;;;;;;6.75;4.00;;;;;18.09;59.86;100829.84;5097607;27;45263;-67
2021/08/20 00:10:33;;;;;;;;;6.75;4.25;;;;;18.13;60.30;100835.78;5079507;27;45166;-68
2021/08/20 00:12:59;;;;;;;;;4.50;4.50;;;;;18.16;59.96;100840.91;5098024;27;45595;-71
2021/08/20 00:15:25;;;;;;;;;5.00;5.00;;;;;18.17;60.01;100838.16;5097649;27;46524;-70
2021/08/20 00:17:50;;;;;;;;;4.00;4.00;;;;;18.21;59.95;100830.78;5113817;27;45273;-71
2021/08/20 00:20:16;;;;;;;;;3.00;3.00;;;;;18.22;59.82;100822.72;5097784;27;45302;-72
2021/08/20 00:22:41;;;;;;;;;0.00;0.00;;;;;18.24;59.67;100822.59;5097908;27;45413;-71
2021/08/20 00:25:08;;;;;;;;;3.50;3.50;;;;;18.30;59.48;100834.63;5097411;27;46490;-73
2021/08/20 00:27:33;;;;;;;;;5.25;4.25;;;;;18.31;59.63;100828.34;5097268;27;45351;-67
2021/08/20 00:29:58;;;;;;;;;8.75;6.75;;;;;18.31;59.33;100828.34;5097019;27;45477;-70
2021/08/20 00:32:24;;;;;;;;;4.00;4.00;;;;;18.25;59.52;100819.84;5097529;27;45387;-70
2021/08/20 00:34:49;;;;;;;;;3.75;3.75;;;;;18.31;59.24;100825.69;5097338;27;45330;-68
2021/08/20 00:37:15;;;;;;;;;6.00;5.50;;;;;18.32;59.46;100819.41;5097083;27;45370;-72
2021/08/20 00:39:44;;;;;;;;;3.00;3.00;;;;;18.35;59.41;100828.03;5097072;27;45367;-70
2021/08/20 00:42:10;;;;;;;;;3.75;3.75;;;;;18.35;59.43;100824.53;5097484;27;45417;-69
2021/08/20 00:44:36;;;;;;;;;5.75;4.00;;;;;18.34;59.07;100825.47;5096879;27;46290;-67
2021/08/20 00:47:01;;;;;;;;;7.25;4.00;;;;;18.35;59.38;100830.69;5096698;27;45602;-70
2021/08/20 00:49:27;;;;;;;;;5.75;4.00;;;;;18.35;58.86;100825.34;5097345;27;45411;-68
2021/08/20 00:51:52;;;;;;;;;3.50;3.50;;;;;18.28;59.22;100820.56;5097657;27;45311;-72
2021/08/20 00:54:19;;;;;;;;;4.25;3.50;;;;;18.35;58.97;100820.03;5096710;27;46274;-74
2021/08/20 00:56:45;;;;;;;;;4.00;4.00;;;;;18.33;59.26;100815.78;5097067;27;45422;-73
2021/08/20 00:59:15;;;;;;;;;3.00;3.00;;;;;18.33;59.33;100816.63;5096914;27;45330;-70
2021/08/20 01:01:41;;;;;;;;;4.50;4.50;;;;;18.35;59.02;100819.19;5078549;27;45407;-67
2021/08/20 01:04:07;;;;;;;;;3.75;3.00;;;;;18.38;59.06;100818.97;5096658;27;45269;-72
2021/08/20 01:06:33;;;;;;;;;5.00;5.00;;;;;18.39;59.20;100818.03;5096455;27;45435;-74
2021/08/20 01:08:59;;;;;;;;;4.00;4.00;;;;;18.38;59.32;100805.66;5096546;27;45284;-75
2021/08/20 01:11:26;;;;;;;;;5.25;4.75;;;;;18.39;59.39;100810.03;5097210;27;45623;-73
2021/08/20 01:13:52;;;;;;;;;5.00;5.00;;;;;18.43;59.18;100810.66;5078605;27;46940;-73
2021/08/20 01:16:17;;;;;;;;;5.00;4.00;;;;;18.45;58.90;100804.28;5096679;27;45327;-74
2021/08/20 01:18:43;;;;;;;;;5.00;4.25;;;;;18.42;59.24;100801.81;5096590;27;45296;-75
2021/08/20 01:21:10;;;;;;;;;6.50;5.25;;;;;18.46;59.18;100800.66;5096702;27;45579;-74
2021/08/20 01:23:36;;;;;;;;;7.00;7.00;;;;;18.44;59.21;100797.25;5096401;27;45434;-70
2021/08/20 01:26:02;;;;;;;;;5.75;5.00;;;;;18.48;59.21;100796.06;5077832;27;45768;-70
2021/08/20 01:28:28;;;;;;;;;5.75;4.25;;;;;18.46;59.24;100797.13;5096498;27;45274;-69
2021/08/20 01:31:20;;;;;;;;;7.25;4.50;;;;;18.50;59.55;100801.28;5096957;27;45551;-74
2021/08/20 01:33:45;;;;;;;;;5.25;5.25;;;;;18.47;59.61;100794.38;5090824;27;46664;-74
2021/08/20 01:36:11;;;;;;;;;4.25;4.25;;;;;18.49;59.42;100800.44;5096220;27;45188;-73
2021/08/20 01:38:48;;;;;;;;;3.50;3.00;;;;;18.52;59.31;100797.56;5096556;27;45367;-72
2021/08/20 01:41:14;;;;;;;;;5.00;5.00;;;;;18.53;59.29;100791.28;5096510;27;45599;-73
2021/08/20 01:43:40;;;;;;;;;8.25;5.25;;;;;18.57;59.14;100796.38;5096073;27;46329;-68
2021/08/20 01:46:05;;;;;;;;;4.00;4.00;;;;;18.58;59.47;100792.75;5096168;27;45416;-68
2021/08/20 01:48:30;;;;;;;;;3.25;3.00;;;;;18.57;59.62;100791.06;5077706;27;45449;-73
2021/08/20 01:50:56;;;;;;;;;5.25;5.25;;;;;18.54;59.35;100786.78;5096860;27;45325;-73
2021/08/20 01:53:21;;;;;;;;;4.75;4.00;;;;;18.53;59.71;100785.94;5096055;27;45354;-73
2021/08/20 01:55:49;;;;;;;;;6.50;5.00;;;;;18.50;59.47;100780.84;5096082;27;45326;-73
2021/08/20 01:58:14;;;;;;;;;4.25;3.00;;;;;18.51;59.77;100771.88;5077693;27;45412;-68
2021/08/20 02:00:40;;;;;;;;;4.75;4.00;;;;;18.53;59.86;100766.44;5096135;27;45356;-71
2021/08/20 02:03:06;;;;;;;;;3.75;3.75;;;;;18.55;59.77;100772.50;5095822;27;46153;-72
2021/08/20 02:05:32;;;;;;;;;6.75;6.75;;;;;18.52;59.63;100764.72;5095726;27;45252;-68
2021/08/20 02:07:58;;;;;;;;;5.00;3.25;;;;;18.55;59.75;100764.50;5096335;27;45448;-71
2021/08/20 02:10:24;;;;;;;;;5.50;5.00;;;;;18.56;59.75;100763.56;5096392;27;45431;-69
2021/08/20 02:12:50;;;;;;;;;7.50;4.00;;;;;18.57;59.79;100767.94;5095682;27;45361;-73
2021/08/20 02:15:15;;;;;;;;;4.00;4.00;;;;;18.60;59.62;100766.84;5095700;27;45430;-64
2021/08/20 02:17:41;;;;;;;;;5.75;4.00;;;;;18.60;59.59;100759.72;5095940;27;45339;-73
2021/08/20 02:20:07;;;;;;;;;3.50;3.50;;;;;18.61;59.68;100763.22;5094628;27;45359;-72
2021/08/20 02:22:32;;;;;;;;;6.00;4.00;;;;;18.62;59.77;100772.94;5095891;27;46514;-69
2021/08/20 02:24:58;;;;;;;;;8.25;4.00;;;;;18.62;59.63;100762.28;5096123;27;45242;-69
2021/08/20 02:27:23;;;;;;;;;6.00;4.00;;;;;18.60;59.86;100770.38;5095720;27;45212;-67
2021/08/20 02:29:49;;;;;;;;;3.00;3.00;;;;;18.57;59.68;100775.06;5095993;27;45289;-70
2021/08/20 02:32:15;;;;;;;;;6.00;5.25;;;;;18.54;60.01;100773.47;5095642;27;45594;-72
2021/08/20 02:34:40;;;;;;;;;4.25;3.00;;;;;18.51;59.73;100771.88;5095702;27;45260;-73
2021/08/20 02:37:06;;;;;;;;;5.00;3.25;;;;;18.52;59.72;100778.91;5095798;27;45467;-73
2021/08/20 02:39:33;;;;;;;;;4.00;4.00;;;;;18.53;60.02;100767.28;5095762;27;45295;-72
2021/08/20 02:41:58;;;;;;;;;4.00;4.00;;;;;18.54;60.00;100771.66;5077417;27;46405;-66
2021/08/20 02:44:23;;;;;;;;;4.50;4.00;;;;;18.58;59.67;100774.09;5112881;27;45584;-69
2021/08/20 02:46:49;;;;;;;;;4.50;4.50;;;;;18.56;60.13;100773.38;5115103;27;45441;-70
2021/08/20 02:49:14;;;;;;;;;4.00;4.00;;;;;18.57;60.03;100777.72;5081132;27;45506;-66
2021/08/20 02:51:40;;;;;;;;;5.00;3.00;;;;;18.54;59.99;100774.31;5099605;27;46214;-70
2021/08/20 02:54:05;;;;;;;;;5.50;4.00;;;;;18.56;59.92;100778.69;5099203;27;45361;-71
2021/08/20 02:56:31;;;;;;;;;4.50;3.25;;;;;18.54;60.17;100769.00;5099429;27;45378;-71
2021/08/20 02:58:56;;;;;;;;;5.00;3.00;;;;;18.54;60.01;100777.00;5099193;27;45631;-72
2021/08/20 03:01:21;;;;;;;;;4.25;4.25;;;;;18.52;60.33;100783.38;5114651;27;48320;-73
2021/08/20 03:03:48;;;;;;;;;4.00;3.75;;;;;18.50;60.23;100778.16;5098739;27;45394;-72
2021/08/20 03:06:14;;;;;;;;;5.00;5.00;;;;;18.46;60.43;100776.69;5080096;27;45358;-72
2021/08/20 03:08:40;;;;;;;;;5.00;3.00;;;;;18.39;60.36;100770.09;5098796;27;45326;-70
2021/08/20 03:11:05;;;;;;;;;5.00;3.00;;;;;18.38;60.63;100779.88;5098662;27;46209;-72
2021/08/20 03:13:31;;;;;;;;;3.00;3.00;;;;;18.35;60.80;100779.25;5099141;27;45294;-72
2021/08/20 03:15:56;;;;;;;;;5.75;4.00;;;;;18.31;60.94;100786.59;5098746;27;45179;-72
2021/08/20 03:18:22;;;;;;;;;4.25;4.00;;;;;18.29;61.09;100771.69;5098956;27;45770;-73
2021/08/20 03:20:48;;;;;;;;;5.00;3.75;;;;;18.31;61.24;100777.75;5098468;27;45954;-72
2021/08/20 03:23:14;;;;;;;;;7.00;4.75;;;;;18.32;61.22;100771.47;5080037;27;45713;-71
2021/08/20 03:25:40;;;;;;;;;6.00;4.00;;;;;18.34;60.85;100772.22;5080242;27;45331;-72
2021/08/20 03:28:07;;;;;;;;;6.75;4.25;;;;;18.35;60.71;100764.09;5098654;27;45570;-70
2021/08/20 03:30:33;;;;;;;;;6.00;5.00;;;;;18.43;60.91;100768.91;5098716;27;46211;-71
2021/08/20 03:32:58;;;;;;;;;4.00;3.00;;;;;18.46;60.88;100754.50;5098608;27;45277;-71
2021/08/20 03:35:25;;;;;;;;;5.00;5.00;;;;;18.48;60.86;100761.44;5098274;27;45262;-72
2021/08/20 03:37:50;;;;;;;;;5.75;4.00;;;;;18.51;60.86;100755.91;5098485;27;45601;-73
2021/08/20 03:40:15;;;;;;;;;6.50;6.50;;;;;18.53;60.78;100758.44;5079334;27;52957;-74
2021/08/20 03:42:40;;;;;;;;;5.75;4.75;;;;;18.54;60.59;100758.34;5098262;27;45291;-74
2021/08/20 03:45:07;;;;;;;;;4.00;4.00;;;;;18.59;60.38;100768.69;5114185;27;45337;-73
2021/08/20 03:47:32;;;;;;;;;5.50;3.75;;;;;18.62;60.73;100767.59;5098750;27;45353;-73
2021/08/20 03:49:57;;;;;;;;;5.00;5.00;;;;;18.65;60.51;100767.38;5098059;27;46208;-72
2021/08/20 03:52:23;;;;;;;;;4.50;4.50;;;;;18.66;60.13;100767.28;5098104;27;45415;-74
2021/08/20 03:54:48;;;;;;;;;5.75;4.75;;;;;18.68;60.72;100775.16;5098246;27;45990;-72
2021/08/20 03:57:14;;;;;;;;;20.75;17.25;;;;;18.69;60.18;100775.06;5097408;27;45418;-72
2021/08/20 03:59:40;;;;;;;;;9.00;6.00;;;;;18.70;60.30;100770.56;5097643;27;45477;-71
2021/08/20 04:02:05;;;;;;;;;5.50;5.00;;;;;18.71;60.03;100774.09;5097849;27;45366;-70
2021/08/20 04:04:31;;;;;;;;;6.25;4.00;;;;;18.72;60.15;100776.63;5098242;27;45394;-71
2021/08/20 04:06:57;;;;;;;;;6.25;6.00;;;;;18.74;60.45;100780.03;5097871;27;45502;-68
2021/08/20 04:09:22;;;;;;;;;4.00;4.00;;;;;18.74;60.31;100780.03;5078896;27;45983;-71
2021/08/20 04:11:47;;;;;;;;;5.00;3.50;;;;;18.77;60.06;100785.16;5097600;27;45265;-69
2021/08/20 04:14:13;;;;;;;;;4.00;4.00;;;;;18.76;60.34;100778.13;5097594;27;45402;-67
2021/08/20 04:16:38;;;;;;;;;3.25;3.25;;;;;18.77;60.02;100782.47;5079635;27;45508;-67
2021/08/20 04:19:04;;;;;;;;;4.75;3.50;;;;;18.79;59.99;100791.22;5079421;27;45561;-72
2021/08/20 04:21:29;;;;;;;;;5.00;5.00;;;;;18.82;59.93;100795.50;5097501;27;45292;-73
2021/08/20 04:23:55;;;;;;;;;5.00;5.00;;;;;18.81;60.01;100788.47;5097514;27;45396;-72
2021/08/20 04:26:21;;;;;;;;;4.00;4.00;;;;;18.83;59.89;100795.38;5097827;27;45264;-68
2021/08/20 04:28:49;;;;;;;;;3.75;3.75;;;;;18.84;60.11;100797.06;5097009;27;46363;-70
2021/08/20 04:31:15;;;;;;;;;5.25;4.50;;;;;18.83;60.12;100789.19;5097157;27;45453;-69
2021/08/20 04:33:40;;;;;;;;;5.50;3.25;;;;;18.88;60.36;100795.06;5097223;27;45308;-71
2021/08/20 04:36:06;;;;;;;;;5.25;5.00;;;;;18.88;60.08;100796.84;5113739;27;45589;-67
2021/08/20 04:38:31;;;;;;;;;3.50;3.50;;;;;18.89;60.27;100804.75;5079039;27;48188;-66
2021/08/20 04:40:57;;;;;;;;;6.00;4.75;;;;;18.86;60.04;100790.78;5097138;27;45470;-69
2021/08/20 04:43:22;;;;;;;;;6.00;4.25;;;;;18.89;60.36;100795.88;5097182;27;45381;-68
2021/08/20 04:45:47;;;;;;;;;1.00;1.00;;;;;18.87;60.71;100792.47;5097425;27;45580;-65
2021/08/20 04:48:13;;;;;;;;;4.00;4.00;;;;;18.93;60.41;100794.69;5096886;27;46191;-63
2021/08/20 04:50:38;;;;;;;;;4.50;4.50;;;;;18.92;60.64;100795.66;5078577;27;45625;-69
2021/08/20 04:53:04;;;;;;;;;4.25;4.25;;;;;18.92;59.98;100801.88;5097577;27;45416;-70
2021/08/20 04:55:29;;;;;;;;;6.75;6.75;;;;;18.89;60.89;100798.56;5097194;27;45252;-72
2021/08/20 04:57:54;;;;;;;;;4.75;4.75;;;;;18.89;60.48;100801.22;5096738;27;45449;-74
2021/08/20 05:00:20;;;;;;;;;5.75;3.25;;;;;18.92;60.93;100801.88;5097004;27;45369;-74
2021/08/20 05:02:47;;;;;;;;;4.00;3.00;;;;;18.96;60.66;100802.47;5097103;27;45257;-72
2021/08/20 05:05:13;;;;;;;;;5.75;4.75;;;;;19.00;60.27;100803.16;5078530;27;45635;-74
2021/08/20 05:07:38;;;;;;;;;4.75;4.00;;;;;19.02;60.29;100801.22;5095446;27;46184;-69
2021/08/20 05:10:09;;;;;;;;;8.00;5.00;;;;;19.01;60.48;100808.34;5096669;27;45325;-73
2021/08/20 05:12:34;;;;;;;;;5.00;5.00;;;;;19.04;60.53;100808.13;5078434;27;44725;-73
2021/08/20 05:15:00;;;;;;;;;7.00;6.00;;;;;19.08;60.91;100811.44;5097281;27;45337;-74
2021/08/20 05:17:25;;;;;;;;;9.25;8.25;;;;;19.09;60.94;100806.00;5077907;27;47389;-73
2021/08/20 05:19:51;;;;;;;;;10.00;6.25;;;;;19.09;61.01;100803.34;5096624;27;45377;-63
2021/08/20 05:22:16;;;;;;;;;6.25;6.00;;;;;19.11;60.31;100811.22;5096541;27;45304;-68
2021/08/20 05:24:41;;;;;;;;;6.25;5.25;;;;;19.11;60.63;100809.41;5078461;27;45581;-70
2021/08/20 05:27:07;;;;;;;;;5.25;4.50;;;;;19.12;60.45;100810.25;5096726;27;46336;-70
2021/08/20 05:29:32;;;;;;;;;6.75;6.50;;;;;19.09;60.47;100807.81;5112136;27;45340;-74
2021/08/20 05:31:58;;;;;;;;;5.00;5.00;;;;;19.12;60.67;100810.25;5096494;27;45365;-70
2021/08/20 05:34:23;;;;;;;;;8.00;4.25;;;;;19.16;60.12;100814.41;5096677;27;45417;-73
2021/08/20 05:36:48;;;;;;;;;5.50;5.25;;;;;19.17;60.26;100816.09;5096312;27;45468;-74
2021/08/20 05:39:14;;;;;;;;;9.00;7.00;;;;;19.16;60.31;100813.56;5096557;27;45468;-74
2021/08/20 05:41:39;;;;;;;;;6.75;6.75;;;;;19.18;60.45;100819.63;5096345;27;45372;-60
2021/08/20 05:44:04;;;;;;;;;6.75;6.00;;;;;19.19;60.57;100821.34;5096894;27;45635;-71
2021/08/20 05:46:30;;;;;;;;;9.75;7.25;;;;;19.21;60.22;100827.41;5064062;28;47244;-72
2021/08/20 05:48:55;;;;;;;;;7.00;7.00;;;;;19.18;60.08;100817.81;5073749;28;45476;-71
2021/08/20 05:51:21;;;;;;;;;6.75;6.00;;;;;19.21;60.23;100822.09;5074385;28;45519;-73
2021/08/20 05:53:46;;;;;;;;;6.25;6.25;;;;;19.24;60.30;100828.03;5074696;28;45495;-75
2021/08/20 05:56:12;;;;;;;;;6.25;6.25;;;;;19.24;60.20;100829.84;5075955;28;46402;-75
2021/08/20 05:58:43;;;;;;;;;8.25;7.50;;;;;19.23;60.17;100831.66;5076300;28;45255;-72
2021/08/20 06:01:09;;;;;;;;;8.50;7.50;;;;;19.27;60.80;100829.63;5076647;28;45317;-74
2021/08/20 06:03:34;;;;;;;;;7.00;6.25;;;;;19.28;60.43;100831.34;5057985;28;45478;-69
2021/08/20 06:05:59;;;;;;;;;7.00;6.00;;;;;19.28;60.63;100828.66;5075424;28;46407;-74
2021/08/20 06:08:25;;;;;;;;;8.50;7.75;;;;;19.30;60.25;100825.88;5075724;28;45433;-74
2021/08/20 06:10:52;;;;;;;;;10.00;7.50;;;;;19.34;60.13;100828.22;5075484;28;45411;-74
2021/08/20 06:13:18;;;;;;;;;7.75;7.00;;;;;19.36;60.15;100823.63;5074425;28;45350;-75
2021/08/20 06:15:43;;;;;;;;;10.00;6.75;;;;;19.39;60.02;100834.06;5057314;28;46609;-74
2021/08/20 06:18:08;;;;;;;;;7.75;6.50;;;;;19.45;59.81;100838.06;5075866;28;45236;-72
2021/08/20 06:20:34;;;;;;;;;10.00;9.00;;;;;19.46;59.91;100833.59;5075511;28;45398;-73
2021/08/20 06:22:59;;;;;;;;;7.00;7.00;;;;;19.44;59.94;100830.19;5075685;28;45657;-76
2021/08/20 06:25:25;;;;;;;;;6.75;6.75;;;;;19.50;59.94;100827.06;5091176;27;46810;-74
2021/08/20 06:27:50;;;;;;;;;8.75;8.25;;;;;19.54;59.66;100833.88;5075020;28;45336;-71
2021/08/20 06:30:16;;;;;;;;;6.50;6.50;;;;;19.54;59.76;100831.22;5075303;28;45283;-71
2021/08/20 06:32:41;;;;;;;;;7.75;6.00;;;;;19.59;59.32;100837.06;5075421;28;45295;-73
2021/08/20 06:35:07;;;;;;;;;9.00;7.00;;;;;19.64;59.59;100829.56;5075174;28;46733;-73
2021/08/20 06:37:32;;;;;;;;;9.00;8.00;;;;;19.67;59.69;100829.34;5074997;28;45437;-73
2021/08/20 06:39:58;;;;;;;;;9.25;8.50;;;;;19.69;59.40;100827.41;5056663;28;45407;-68
2021/08/20 06:42:23;;;;;;;;;7.00;7.00;;;;;19.77;59.36;100832.19;5075175;28;45347;-72
2021/08/20 06:44:49;;;;;;;;;8.75;7.75;;;;;19.79;59.05;100832.03;5074935;28;46416;-73
2021/08/20 06:47:15;;;;;;;;;6.75;6.75;;;;;19.82;59.24;100837.16;5074906;28;45422;-68
2021/08/20 06:49:41;;;;;;;;;7.25;6.75;;;;;19.81;58.86;100830.13;5075070;28;45328;-73
2021/08/20 06:52:10;;;;;;;;;11.00;9.50;;;;;19.87;58.82;100842.16;5075044;28;45604;-74
2021/08/20 06:54:35;;;;;;;;;11.75;9.00;;;;;19.90;59.09;100840.13;5074603;28;45276;-73
2021/08/20 06:57:01;;;;;;;;;11.50;9.50;;;;;19.91;59.07;100846.34;5056380;28;45496;-72
2021/08/20 06:59:26;;;;;;;;;8.25;8.25;;;;;19.93;59.16;100845.22;5074708;28;45372;-73
2021/08/20 07:01:51;;;;;;;;;9.25;7.50;;;;;19.92;59.13;100838.19;5056771;28;45414;-73
2021/08/20 07:04:17;;;;;;;;;13.25;9.00;;;;;19.97;58.57;100846.69;5074646;28;45584;-71
2021/08/20 07:06:43;;;;;;;;;7.00;7.00;;;;;20.00;58.76;100841.13;5056277;28;45452;-68
2021/08/20 07:09:08;;;;;;;;;9.50;7.50;;;;;20.03;58.78;100839.19;5074537;28;45346;-71
2021/08/20 07:11:33;;;;;;;;;9.75;7.50;;;;;20.07;58.52;100846.00;5075233;28;45621;-66
2021/08/20 07:14:00;;;;;;;;;8.75;8.75;;;;;20.09;58.81;100838.72;5056720;28;47827;-70
2021/08/20 07:16:26;;;;;;;;;7.00;6.25;;;;;20.11;58.76;100836.78;5074423;28;45425;-66
2021/08/20 07:18:51;;;;;;;;;11.75;10.00;;;;;20.12;58.84;100841.16;5074356;28;45357;-68
2021/08/20 07:21:17;;;;;;;;;10.50;10.50;;;;;20.13;58.31;100851.72;5074721;28;45313;-72
2021/08/20 07:23:42;;;;;;;;;8.75;7.25;;;;;20.17;58.25;100846.16;5074520;28;46735;-63
2021/08/20 07:26:08;;;;;;;;;11.00;7.00;;;;;20.21;58.61;100848.50;5074402;28;45295;-74
2021/08/20 07:28:34;;;;;;;;;9.75;8.25;;;;;20.26;58.13;100853.47;5074682;28;45331;-75
2021/08/20 07:31:00;;;;;;;;;9.00;8.75;;;;;20.28;58.46;100851.53;5075953;28;45273;-74
2021/08/20 07:33:25;;;;;;;;;8.25;8.25;;;;;20.31;57.99;100856.63;5059928;28;45557;-74
2021/08/20 07:35:51;;;;;;;;;12.00;11.00;;;;;20.34;57.95;100855.56;5077800;28;45303;-75
2021/08/20 07:38:17;;;;;;;;;7.50;7.25;;;;;20.35;58.52;100860.75;5059588;28;45450;-75
2021/08/20 07:40:42;;;;;;;;;10.25;9.00;;;;;20.40;58.04;100863.09;5078696;28;45331;-73
2021/08/20 07:43:08;;;;;;;;;8.75;8.25;;;;;20.43;57.75;100857.50;5078023;28;46136;-74
2021/08/20 07:45:34;;;;;;;;;14.00;10.25;;;;;20.46;58.35;100865.28;5059536;28;45470;-69
2021/08/20 07:48:01;;;;;;;;;11.50;8.50;;;;;20.49;57.92;100864.19;5077490;28;45516;-74
2021/08/20 07:50:32;;;;;;;;;10.25;9.75;;;;;20.52;57.61;100867.47;5059981;28;45620;-73
2021/08/20 07:52:58;;;;;;;;;11.00;8.50;;;;;20.54;57.46;100865.53;5059051;28;45722;-74
2021/08/20 07:55:23;;;;;;;;;12.00;9.00;;;;;20.56;57.96;100865.41;5077460;27;45334;-71
2021/08/20 07:57:55;;;;;;;;;14.00;11.25;;;;;20.64;57.51;100868.31;5093333;27;45306;-70
2021/08/20 08:00:23;;;;;;;;;11.75;11.25;;;;;20.62;57.24;100872.94;5092491;27;45439;-71
2021/08/20 08:02:48;;;;;;;;;10.50;9.25;;;;;20.62;57.44;100874.78;5077374;28;46176;-71
2021/08/20 08:05:14;;;;;;;;;15.25;14.00;;;;;20.66;57.82;100879.75;5077525;28;45469;-71
2021/08/20 08:07:39;;;;;;;;;12.00;11.00;;;;;20.75;57.12;100880.84;5077110;28;45547;-71
2021/08/20 08:10:05;;;;;;;;;10.25;9.75;;;;;20.82;57.23;100878.59;5059550;28;45266;-73
2021/08/20 08:12:31;;;;;;;;;11.50;10.25;;;;;20.90;57.05;100880.66;5077246;28;46629;-74
2021/08/20 08:14:56;;;;;;;;;15.75;11.25;;;;;20.95;56.48;100875.78;5077091;28;45391;-74
2021/08/20 08:17:22;;;;;;;;;15.00;11.50;;;;;21.04;56.49;100882.22;5077451;28;45591;-74
2021/08/20 08:19:47;;;;;;;;;11.50;10.00;;;;;21.12;56.17;100880.63;5077510;28;45394;-68
2021/08/20 08:22:13;;;;;;;;;8.50;8.00;;;;;21.14;56.24;100867.16;5077427;28;45361;-73
2021/08/20 08:24:38;;;;;;;;;11.50;9.50;;;;;21.24;55.85;100886.00;5076752;28;45298;-66
2021/08/20 08:27:03;;;;;;;;;7.50;7.25;;;;;21.31;55.81;100880.00;5058247;28;45382;-65
2021/08/20 08:29:29;;;;;;;;;10.25;7.75;;;;;21.38;55.35;100885.72;5076666;28;45244;-68
2021/08/20 08:31:54;;;;;;;;;8.50;7.75;;;;;21.45;55.22;100889.59;5058444;28;48427;-68
2021/08/20 08:34:20;;;;;;;;;9.00;8.50;;;;;21.55;55.13;100897.69;5058458;28;45285;-70
2021/08/20 08:36:46;;;;;;;;;12.75;8.00;;;;;21.65;54.62;100894.28;5077140;28;45372;-71
2021/08/20 08:39:11;;;;;;;;;9.00;7.00;;;;;21.74;54.30;100897.06;5076947;28;45597;-72
2021/08/20 08:41:37;;;;;;;;;9.00;8.00;;;;;21.72;54.10;100888.31;5076333;28;46660;-71
2021/08/20 08:44:03;;;;;;;;;13.50;11.50;;;;;21.78;54.04;100891.47;5076695;28;45364;-71
2021/08/20 08:46:36;;;;;;;;;14.00;9.50;;;;;21.92;53.85;100904.56;5076783;28;45355;-68
2021/08/20 08:49:03;;;;;;;;;9.00;8.00;;;;;21.96;54.22;100903.31;5076607;28;45499;-62
2021/08/20 08:51:29;;;;;;;;;9.75;6.75;;;;;21.94;53.82;100893.72;5092186;27;48531;-75
2021/08/20 08:53:54;;;;;;;;;12.25;11.75;;;;;22.11;53.82;100905.69;5076280;28;45437;-73
2021/08/20 08:56:20;;;;;;;;;14.50;12.50;;;;;22.24;53.27;100905.50;5076501;28;45323;-69
2021/08/20 08:58:46;;;;;;;;;26.00;21.50;;;;;22.27;53.56;100910.59;5076616;28;45437;-74
2021/08/20 09:01:25;;;;;;;;;13.25;12.75;;;;;22.35;52.98;100901.94;5076360;28;46483;-71
2021/08/20 09:04:09;;;;;;;;;9.75;8.75;;;;;22.52;52.69;100906.72;5076147;28;45311;-74
2021/08/20 09:06:39;;;;;;;;;10.75;8.25;;;;;22.56;52.21;100902.78;5075844;28;45461;-71
2021/08/20 09:09:07;;;;;;;;;13.50;11.75;;;;;22.57;52.79;100903.63;5076330;28;45448;-72
2021/08/20 09:11:32;;;;;;;;;12.00;9.00;;;;;22.61;52.39;100911.28;5076079;28;46403;-69
2021/08/20 09:13:58;;;;;;;;;10.00;10.00;;;;;22.70;52.26;100903.44;5057850;28;45299;-69
2021/08/20 09:16:34;;;;;;;;;11.00;9.00;;;;;22.88;52.14;100903.66;5076700;28;45335;-72
2021/08/20 09:19:12;;;;;;;;;13.00;10.00;;;;;23.06;51.57;100909.22;5076141;28;45353;-73
2021/08/20 09:21:53;;;;;;;;;9.00;9.00;;;;;23.19;51.47;100900.94;5075919;28;46332;-70
2021/08/20 09:24:32;;;;;;;;;8.75;7.50;;;;;23.37;51.22;100903.00;5076135;28;45240;-71
2021/08/20 09:27:21;;;;;;;;;14.25;12.50;;;;;23.53;50.98;100899.78;5075829;28;45497;-69
2021/08/20 09:30:11;;;;;;;;;8.75;8.75;;;;;23.67;50.50;100891.34;5076040;28;45759;-74
2021/08/20 09:32:46;;;;;;;;;9.00;8.50;;;;;23.83;50.25;100889.94;5075617;28;46775;-75
2021/08/20 09:35:12;;;;;;;;;16.00;11.50;;;;;23.98;49.68;100885.00;5075716;28;45328;-70
2021/08/20 09:37:38;;;;;;;;;11.00;8.25;;;;;24.14;49.67;100884.41;5057389;28;45420;-70
2021/08/20 09:40:13;;;;;;;;;12.75;12.00;;;;;24.32;49.11;100890.75;5075952;28;45433;-74
2021/08/20 09:42:39;;;;;;;;;16.25;12.75;;;;;24.51;48.52;100889.88;5074905;28;46269;-74
2021/08/20 09:45:13;;;;;;;;;9.75;9.75;;;;;24.69;48.20;100896.34;5075463;28;45418;-72
2021/08/20 09:47:47;;;;;;;;;11.00;11.00;;;;;24.77;47.78;100893.78;5075289;28;45285;-70
2021/08/20 09:50:12;;;;;;;;;12.00;9.00;;;;;24.77;48.15;100891.09;5075549;28;45396;-73
2021/08/20 09:52:38;;;;;;;;;7.25;7.25;;;;;24.83;47.82;100895.91;5075407;28;46167;-73
2021/08/20 09:55:04;;;;;;;;;8.25;8.25;;;;;24.91;47.32;100896.00;5074949;28;45330;-73
2021/08/20 09:57:32;;;;;;;;;10.75;9.00;;;;;25.02;47.41;100899.50;5075838;28;45362;-72
2021/08/20 09:59:58;;;;;;;;;7.50;7.50;;;;;25.04;46.99;100906.44;5076022;28;45571;-74
2021/08/20 10:02:40;;;;;;;;;9.25;8.25;;;;;25.16;47.04;100908.94;5056825;28;47969;-70
2021/08/20 10:05:07;;;;;;;;;10.25;8.75;;;;;25.22;46.77;100901.09;5075230;28;45400;-66
2021/08/20 10:07:38;;;;;;;;;7.00;7.00;;;;;25.28;46.58;100901.47;5056696;28;45306;-68
2021/08/20 10:10:06;;;;;;;;;10.00;7.75;;;;;25.35;46.61;100906.13;5075491;28;45341;-70
2021/08/20 10:12:32;;;;;;;;;16.50;12.75;;;;;25.51;46.32;100902.81;5074622;28;45527;-67
2021/08/20 10:14:58;;;;;;;;;7.00;7.00;;;;;25.65;45.84;100911.34;5075057;28;45241;-74
2021/08/20 10:17:24;;;;;;;;;9.00;6.00;;;;;25.73;45.83;100906.06;5075241;28;45296;-63
2021/08/20 10:19:50;;;;;;;;;7.00;6.50;;;;;25.86;45.55;100907.50;5075676;28;45519;-73
2021/08/20 10:22:15;;;;;;;;;7.00;7.00;;;;;25.94;45.25;100897.63;5056529;28;46442;-69
2021/08/20 10:24:41;;;;;;;;;7.75;5.75;;;;;26.01;44.55;100903.25;5056445;28;45276;-73
2021/08/20 10:27:09;;;;;;;;;9.25;6.75;;;;;26.09;44.54;100911.41;5074959;28;45316;-71
2021/08/20 10:29:39;;;;;;;;;5.25;5.25;;;;;26.05;44.61;100903.81;5075180;28;45539;-74
2021/08/20 10:32:09;;;;;;;;;6.00;6.00;;;;;26.05;44.16;100899.25;5074635;28;45393;-72
2021/08/20 10:34:39;;;;;;;;;5.50;5.00;;;;;26.20;44.30;100907.66;5074462;28;45386;-74
2021/08/20 10:37:12;;;;;;;;;4.50;4.50;;;;;26.27;43.74;100902.47;5074757;28;45487;-71
2021/08/20 10:39:43;;;;;;;;;4.50;4.25;;;;;26.28;43.61;100914.97;5056636;28;45604;-70
2021/08/20 10:42:12;;;;;;;;;6.00;5.00;;;;;26.18;43.08;100888.09;5074745;28;45870;-70
2021/08/20 10:44:45;;;;;;;;;3.75;3.00;;;;;26.33;42.89;100909.09;5074493;28;45423;-72
2021/08/20 10:47:38;;;;;;;;;5.75;3.75;;;;;26.49;43.01;100905.66;5056234;28;45338;-69
2021/08/20 10:50:20;;;;;;;;;4.25;4.00;;;;;26.66;42.88;100896.69;5071246;28;45327;-69
2021/08/20 10:52:51;;;;;;;;;5.00;5.00;;;;;26.86;42.03;100899.19;5074744;28;45669;-72
2021/08/20 10:55:29;;;;;;;;;3.50;3.00;;;;;26.90;41.41;100903.25;5074078;27;45312;-65
2021/08/20 10:57:57;;;;;;;;;7.75;6.00;;;;;26.96;41.12;100891.81;5039955;28;45368;-65
2021/08/20 11:00:25;;;;;;;;;6.00;4.50;;;;;26.96;40.93;100897.19;5073436;28;45263;-64
2021/08/20 11:02:55;;;;;;;;;4.25;3.50;;;;;27.00;40.73;100894.19;5074431;28;45639;-67
2021/08/20 11:05:45;;;;;;;;;3.50;3.00;;;;;27.11;41.00;100904.69;5074521;28;45250;-69
2021/08/20 11:08:28;;;;;;;;;7.00;5.25;;;;;27.25;40.28;100905.91;5078133;28;45356;-68
2021/08/20 11:10:55;;;;;;;;;6.00;3.00;;;;;27.26;39.53;100905.75;5059986;28;45595;-66
2021/08/20 11:13:20;;;;;;;;;7.50;4.50;;;;;27.26;39.35;100902.22;5077623;28;46424;-67
2021/08/20 11:15:48;;;;;;;;;5.00;3.75;;;;;27.15;39.82;100891.72;5074841;27;45793;-65
2021/08/20 11:18:14;;;;;;;;;6.75;5.75;;;;;27.07;39.36;100895.22;5074612;27;45327;-63
2021/08/20 11:20:44;;;;;;;;;4.25;3.25;;;;;26.97;39.75;100892.63;5058656;27;45518;-61